Milton Center, Ohio
Current Conditions -  °F | °C
As of 11:52 AM on Sunday 21 Dec 2014 (Local Time) from KTOL Reporting Station
Overcast Overcast  
Wind Chill: 26°   Ceiling: 1700
Heat Index: 32°   Visibility: 7mi
Dew Point: 25°   Wind: 6mph
Humidity: 75%   Direction: 210°SSW
Pressure: 30.3"   Gusts: NA
Location:  41.3°N, 83.83°W
Report Text: KTOL 211652Z 21005KT 7SM OVC017 00/M04 A3030 RMK AO2 SLP267 T00001039
Loading
Personal Weather Stations






























Interactive Weather Map New forecast layout! Learn more

10-Day Weather Forecast

Advertisements
Track Severe Weather on mobile